Time;durP1;ratioP1;P1;durP2;ratioP2;P2;SDS_P1;SDS_P2;PMS_P1;PMS_P2;Temp;Humidity;BMP_temperature;BMP_pressure;BME280_temperature;BME280_humidity;BME280_pressure;Samples;Min_cycle;Max_cycle;Signal;HPM_P1;HPM_P2
2021/12/12 00:01:26;;;;;;;32.47;17.15;;;5.40;68.90;;;;;;5035334;28;19909;-86
2021/12/12 00:03:56;;;;;;;30.25;16.58;;;5.30;68.90;;;;;;5027560;28;20029;-87
2021/12/12 00:06:32;;;;;;;29.48;15.98;;;5.70;69.00;;;;;;5023960;28;20041;-88
2021/12/12 00:09:04;;;;;;;29.73;17.00;;;5.70;67.60;;;;;;5033746;28;20048;-90
2021/12/12 00:11:31;;;;;;;27.95;15.60;;;6.10;66.80;;;;;;5033421;28;20087;-88
2021/12/12 00:14:09;;;;;;;32.63;16.40;;;5.90;66.90;;;;;;5033030;28;20029;-90
2021/12/12 00:16:35;;;;;;;30.80;14.80;;;6.00;66.80;;;;;;5034631;28;20034;-90
2021/12/12 00:19:02;;;;;;;30.90;16.95;;;5.90;66.00;;;;;;5015498;28;20396;-88
2021/12/12 00:21:30;;;;;;;34.30;16.98;;;5.50;67.60;;;;;;5014412;28;20041;-89
2021/12/12 00:23:56;;;;;;;29.33;16.17;;;5.40;68.50;;;;;;5027802;28;20025;-89
2021/12/12 00:26:23;;;;;;;31.48;17.13;;;5.50;68.20;;;;;;5033055;28;20032;-87
2021/12/12 00:28:50;;;;;;;30.92;16.20;;;5.50;67.90;;;;;;5022908;28;20160;-89
2021/12/12 00:31:19;;;;;;;31.75;16.90;;;5.20;68.90;;;;;;5028430;28;20112;-89
2021/12/12 00:33:49;;;;;;;33.92;17.33;;;5.20;69.10;;;;;;5025767;28;20477;-88
2021/12/12 00:36:17;;;;;;;30.23;16.85;;;5.40;68.50;;;;;;5014486;28;20034;-87
2021/12/12 00:38:59;;;;;;;32.83;16.40;;;5.30;69.00;;;;;;5015136;28;20026;-89
2021/12/12 00:41:42;;;;;;;32.65;17.05;;;5.00;69.40;;;;;;5014485;28;20033;-89
2021/12/12 00:44:09;;;;;;;33.20;16.67;;;5.00;69.50;;;;;;5028101;28;20067;-88
2021/12/12 00:46:35;;;;;;;32.38;17.90;;;5.40;68.60;;;;;;5034240;28;20040;-89
2021/12/12 00:49:02;;;;;;;33.47;17.67;;;5.50;67.90;;;;;;5034742;28;20523;-89
2021/12/12 00:51:32;;;;;;;36.60;19.10;;;5.30;68.70;;;;;;5016889;28;20428;-87
2021/12/12 00:54:00;;;;;;;32.65;17.20;;;5.60;67.60;;;;;;5025196;28;20397;-87
2021/12/12 00:56:26;;;;;;;31.38;16.65;;;5.60;67.40;;;;;;5018084;28;20030;-87
2021/12/12 00:58:52;;;;;;;30.60;15.82;;;5.60;67.40;;;;;;5014761;28;20033;-86
2021/12/12 01:01:23;;;;;;;31.38;17.23;;;5.70;67.10;;;;;;5013530;28;20025;-90
2021/12/12 01:03:55;;;;;;;33.72;16.70;;;5.40;67.60;;;;;;5017902;28;20026;-89
2021/12/12 01:06:24;;;;;;;33.53;17.60;;;5.50;67.90;;;;;;5019403;28;20026;-89
2021/12/12 01:08:51;;;;;;;39.38;18.55;;;5.40;67.90;;;;;;5013876;28;20038;-92
2021/12/12 01:11:25;;;;;;;33.95;16.92;;;5.40;68.20;;;;;;5046730;28;20041;-88
2021/12/12 01:13:51;;;;;;;36.35;18.20;;;5.10;68.80;;;;;;5023225;28;20026;-91
2021/12/12 01:16:26;;;;;;;33.78;17.65;;;5.00;69.00;;;;;;5022702;28;20036;-89
2021/12/12 01:19:05;;;;;;;36.55;18.83;;;5.10;69.40;;;;;;5029719;28;20033;-89
2021/12/12 01:21:35;;;;;;;35.00;18.02;;;5.10;69.30;;;;;;5017551;28;20051;-89
2021/12/12 01:24:09;;;;;;;33.42;17.90;;;5.10;69.20;;;;;;5046063;28;20025;-88
2021/12/12 01:26:36;;;;;;;35.03;18.58;;;4.80;69.40;;;;;;5037053;28;20022;-89
2021/12/12 01:29:03;;;;;;;34.05;18.38;;;4.80;70.60;;;;;;5033739;28;20045;-92
2021/12/12 01:31:33;;;;;;;35.60;18.63;;;5.10;69.40;;;;;;5030732;28;20393;-90
2021/12/12 01:34:23;;;;;;;34.77;19.50;;;5.30;68.70;;;;;;5025575;28;20030;-89
2021/12/12 01:37:42;;;;;;;33.65;18.25;;;5.10;68.80;;;;;;5014713;28;20033;-89
2021/12/12 01:39:45;;;;;;;37.35;18.98;;;5.30;68.20;;;;;;5019394;28;20030;-91
2021/12/12 01:42:18;;;;;;;35.17;18.95;;;5.20;68.50;;;;;;5033077;28;20616;-90
2021/12/12 01:45:16;;;;;;;36.08;18.25;;;5.30;68.60;;;;;;5025434;28;20018;-90
2021/12/12 01:47:59;;;;;;;43.85;20.08;;;5.40;67.60;;;;;;5027005;28;20100;-91
2021/12/12 01:50:37;;;;;;;37.55;18.88;;;5.40;68.60;;;;;;5023523;28;20025;-89
2021/12/12 01:53:07;;;;;;;35.20;18.65;;;5.70;67.20;;;;;;5025490;28;20034;-89
2021/12/12 01:55:37;;;;;;;35.75;18.52;;;5.60;67.30;;;;;;5018872;28;20030;-88
2021/12/12 01:58:08;;;;;;;38.67;19.63;;;5.40;67.30;;;;;;5023131;28;20037;-91
2021/12/12 02:00:57;;;;;;;37.53;19.25;;;5.60;67.40;;;;;;5032760;28;20029;-89
2021/12/12 02:03:27;;;;;;;41.30;20.10;;;5.60;67.30;;;;;;5020486;28;20497;-90
2021/12/12 02:05:55;;;;;;;37.20;19.45;;;5.70;67.10;;;;;;5013855;28;20026;-85
2021/12/12 02:08:21;;;;;;;37.28;19.10;;;6.00;66.10;;;;;;5013488;28;20045;-87
2021/12/12 02:10:53;;;;;;;41.28;20.70;;;6.00;66.10;;;;;;5013571;28;20069;-90
2021/12/12 02:13:21;;;;;;;37.00;19.63;;;6.00;66.30;;;;;;5013078;28;20037;-88
2021/12/12 02:15:54;;;;;;;38.67;18.67;;;5.80;65.90;;;;;;5015749;28;20449;-89
2021/12/12 02:18:28;;;;;;;35.88;19.95;;;5.70;66.70;;;;;;5029005;28;20493;-90
2021/12/12 02:21:14;;;;;;;41.70;20.05;;;5.70;67.00;;;;;;5012823;28;20030;-87
2021/12/12 02:37:30;;;;;;;41.83;20.33;;;6.10;65.70;;;;;;5022319;28;20079;-88
2021/12/12 02:39:56;;;;;;;45.90;21.17;;;6.20;65.60;;;;;;5031996;28;20413;-92
2021/12/12 02:42:23;;;;;;;41.30;20.80;;;6.00;66.10;;;;;;5034630;28;20030;-92
2021/12/12 02:44:56;;;;;;;38.70;20.27;;;5.90;66.10;;;;;;5035929;28;20025;-88
2021/12/12 02:47:32;;;;;;;40.03;20.33;;;5.90;65.50;;;;;;5031008;28;20033;-92
2021/12/12 02:50:11;;;;;;;39.38;19.80;;;6.10;66.00;;;;;;5025550;28;20032;-87
2021/12/12 02:52:53;;;;;;;47.17;22.67;;;6.10;64.90;;;;;;5025863;28;20041;-89
2021/12/12 02:55:28;;;;;;;45.38;22.13;;;6.00;65.70;;;;;;5033593;28;20033;-88
2021/12/12 02:58:01;;;;;;;46.67;22.92;;;5.90;66.10;;;;;;5035201;28;20427;-86
2021/12/12 03:00:30;;;;;;;44.90;21.42;;;5.80;66.40;;;;;;5035168;28;20037;-88
2021/12/12 03:02:59;;;;;;;42.80;20.80;;;5.70;66.40;;;;;;5024885;28;20060;-86
2021/12/12 03:05:28;;;;;;;43.60;21.13;;;5.70;66.70;;;;;;5016081;28;20065;-85
2021/12/12 03:07:55;;;;;;;50.17;21.88;;;6.00;65.80;;;;;;5016035;28;20034;-87
2021/12/12 03:10:27;;;;;;;44.90;21.00;;;6.00;66.20;;;;;;5015708;28;20030;-87
2021/12/12 03:12:53;;;;;;;42.22;21.17;;;5.90;65.70;;;;;;5026619;28;20061;-88
2021/12/12 03:15:28;;;;;;;41.25;20.85;;;5.90;66.30;;;;;;5034864;28;20029;-87
2021/12/12 03:17:57;;;;;;;42.97;20.27;;;6.20;65.10;;;;;;5031421;28;20382;-86
2021/12/12 03:20:35;;;;;;;42.60;20.63;;;6.00;65.60;;;;;;5035336;28;20124;-86
2021/12/12 03:23:29;;;;;;;41.53;19.95;;;5.90;66.00;;;;;;5034285;28;20057;-88
2021/12/12 03:25:59;;;;;;;46.20;22.60;;;6.00;66.20;;;;;;5032398;28;20029;-87
2021/12/12 03:28:30;;;;;;;42.80;21.40;;;6.10;66.00;;;;;;5030872;28;20132;-92
2021/12/12 03:31:00;;;;;;;45.92;20.40;;;6.10;65.70;;;;;;5015490;28;20544;-93
2021/12/12 03:33:27;;;;;;;;;;;6.10;65.20;;;;;;5045032;28;20055;-86
2021/12/12 03:35:54;;;;;;;43.58;21.35;;;6.40;64.90;;;;;;5055238;28;19905;-85
2021/12/12 03:38:27;;;;;;;43.50;19.73;;;6.60;64.30;;;;;;5015748;28;20028;-85
2021/12/12 03:41:07;;;;;;;46.80;20.75;;;6.70;63.80;;;;;;5015807;28;20026;-85
2021/12/12 03:43:35;;;;;;;44.08;21.05;;;6.30;64.30;;;;;;5016557;28;20022;-85
2021/12/12 03:46:06;;;;;;;45.17;21.15;;;6.00;65.50;;;;;;5034848;28;20033;-83
2021/12/12 03:49:37;;;;;;;53.90;24.00;;;6.00;65.10;;;;;;5133241;27;20399;-85
2021/12/12 03:52:07;;;;;;;46.47;22.45;;;5.80;66.00;;;;;;5113921;28;20030;-86
2021/12/12 03:54:33;;;;;;;44.28;21.85;;;5.80;65.80;;;;;;5113430;28;20033;-86
2021/12/12 03:56:59;;;;;;;43.20;19.55;;;6.30;65.10;;;;;;5127630;28;20424;-86
2021/12/12 03:59:25;;;;;;;43.50;20.23;;;6.20;64.30;;;;;;5132357;28;20473;-87
2021/12/12 04:01:53;;;;;;;42.83;20.70;;;6.00;65.10;;;;;;5130931;28;20028;-85
2021/12/12 04:04:25;;;;;;;38.83;19.63;;;6.10;65.20;;;;;;5131705;28;20024;-86
2021/12/12 04:06:52;;;;;;;40.83;19.70;;;5.90;65.20;;;;;;5131982;27;20401;-87
2021/12/12 04:09:19;;;;;;;41.10;19.35;;;5.80;65.90;;;;;;5131134;28;20038;-86
2021/12/12 04:11:49;;;;;;;39.80;19.60;;;6.10;65.80;;;;;;5130639;28;20031;-85
2021/12/12 04:14:17;;;;;;;37.35;18.08;;;6.20;64.00;;;;;;5131542;27;20016;-86
2021/12/12 04:16:57;;;;;;;39.28;18.95;;;5.80;65.00;;;;;;5130531;28;20027;-87
2021/12/12 04:19:23;;;;;;;41.88;18.75;;;5.80;65.70;;;;;;5131057;28;20020;-86
2021/12/12 04:21:50;;;;;;;40.28;19.48;;;6.00;65.10;;;;;;5133335;27;20023;-86
2021/12/12 04:24:21;;;;;;;36.63;18.92;;;6.10;64.70;;;;;;5131088;28;20038;-85
2021/12/12 04:26:47;;;;;;;36.15;18.75;;;6.30;64.50;;;;;;5130871;28;20551;-86
2021/12/12 04:29:19;;;;;;;33.97;16.08;;;6.50;64.00;;;;;;5130897;28;20449;-86
2021/12/12 04:31:49;;;;;;;38.03;18.23;;;6.20;63.40;;;;;;5130291;28;20115;-86
2021/12/12 04:34:20;;;;;;;40.15;18.42;;;6.40;63.40;;;;;;5131271;28;20436;-91
2021/12/12 04:36:49;;;;;;;;;;;6.10;63.90;;;;;;5130917;28;20039;-85
2021/12/12 04:39:18;;;;;;;38.43;17.13;;;5.90;65.00;;;;;;5130826;28;19907;-91
2021/12/12 04:41:46;;;;;;;36.67;17.27;;;6.20;64.10;;;;;;5132813;28;20041;-85
2021/12/12 04:44:29;;;;;;;35.00;17.40;;;6.30;63.60;;;;;;5132312;28;20023;-84
2021/12/12 04:50:06;;;;;;;34.60;17.30;;;6.70;62.00;;;;;;5130452;28;20397;-81
2021/12/12 04:52:34;;;;;;;35.20;17.40;;;6.50;62.80;;;;;;5132986;28;20371;-83
2021/12/12 04:55:09;;;;;;;37.60;17.15;;;6.60;62.70;;;;;;5129278;28;20048;-85
2021/12/12 04:58:15;;;;;;;37.78;17.42;;;6.60;62.80;;;;;;5121403;28;20031;-84
2021/12/12 05:00:56;;;;;;;40.20;18.58;;;6.90;62.00;;;;;;5122850;28;20539;-84
2021/12/12 05:03:47;;;;;;;33.45;16.75;;;6.90;61.60;;;;;;5119011;28;20038;-85
2021/12/12 05:06:28;;;;;;;32.45;16.73;;;6.80;61.80;;;;;;5117056;28;20082;-88
2021/12/12 05:09:08;;;;;;;33.80;16.98;;;6.50;62.40;;;;;;5101361;28;20406;-85
2021/12/12 05:11:46;;;;;;;34.33;17.35;;;6.50;63.00;;;;;;5099825;28;20016;-86
2021/12/12 05:14:23;;;;;;;32.08;16.67;;;6.60;62.50;;;;;;5107201;28;20030;-85
2021/12/12 05:17:08;;;;;;;31.92;16.13;;;6.40;62.90;;;;;;5122669;28;20008;-84
2021/12/12 05:19:35;;;;;;;34.92;16.73;;;6.30;63.30;;;;;;5121815;28;20420;-92
2021/12/12 05:22:10;;;;;;;35.15;16.80;;;6.50;62.20;;;;;;5117100;28;20038;-85
2021/12/12 05:24:38;;;;;;;32.42;16.08;;;6.80;61.60;;;;;;5115638;28;20015;-86
2021/12/12 05:27:13;;;;;;;35.80;16.38;;;6.90;61.20;;;;;;5116149;28;20023;-84
2021/12/12 05:30:14;;;;;;;36.13;17.15;;;6.70;61.40;;;;;;5115086;28;20030;-82
2021/12/12 05:32:41;;;;;;;33.38;16.13;;;6.70;61.70;;;;;;5034499;28;20045;-84
2021/12/12 05:35:10;;;;;;;34.25;16.70;;;6.40;61.50;;;;;;5019442;28;20042;-85
2021/12/12 05:37:37;;;;;;;33.42;15.82;;;6.20;62.50;;;;;;5018314;28;20026;-84
2021/12/12 05:40:07;;;;;;;33.55;17.45;;;6.10;62.40;;;;;;5003221;28;20057;-85
2021/12/12 05:42:35;;;;;;;29.10;15.93;;;6.00;63.20;;;;;;5019360;28;20029;-84
2021/12/12 05:45:04;;;;;;;33.72;16.13;;;5.90;63.40;;;;;;5017417;28;20030;-89
2021/12/12 05:48:23;;;;;;;31.02;16.13;;;5.90;62.90;;;;;;5132342;27;20384;-82
2021/12/12 05:50:51;;;;;;;28.88;14.50;;;6.00;63.20;;;;;;5114687;28;20493;-91
2021/12/12 05:53:19;;;;;;;28.95;15.48;;;5.80;63.40;;;;;;5101389;28;20055;-84
2021/12/12 05:55:46;;;;;;;30.23;15.65;;;6.00;63.20;;;;;;5106058;28;20374;-92
2021/12/12 05:58:16;;;;;;;29.75;15.25;;;5.80;63.40;;;;;;5120932;28;20051;-82
2021/12/12 06:00:50;;;;;;;29.55;15.40;;;5.60;63.70;;;;;;5125494;27;20035;-88
2021/12/12 06:03:20;;;;;;;34.55;15.95;;;5.50;63.90;;;;;;5111063;28;20028;-83
2021/12/12 06:05:46;;;;;;;31.63;14.73;;;5.60;64.00;;;;;;5119202;28;20023;-85
2021/12/12 06:08:13;;;;;;;33.50;16.77;;;6.00;63.20;;;;;;5131308;27;20394;-81
2021/12/12 06:10:42;;;;;;;28.20;14.93;;;6.20;62.50;;;;;;5113053;28;20027;-84
2021/12/12 06:13:13;;;;;;;29.92;15.13;;;6.20;62.30;;;;;;5113116;28;20024;-82
2021/12/12 06:15:40;;;;;;;28.33;15.85;;;5.80;62.50;;;;;;5132687;27;20043;-85
2021/12/12 06:18:07;;;;;;;28.85;15.45;;;5.60;63.60;;;;;;5126864;28;20351;-90
2021/12/12 06:20:33;;;;;;;32.35;15.90;;;5.70;63.60;;;;;;5132238;28;20027;-85
2021/12/12 06:22:59;;;;;;;29.27;15.05;;;5.80;63.20;;;;;;5126030;27;20308;-86
2021/12/12 06:25:25;;;;;;;29.80;14.77;;;5.50;63.50;;;;;;5113171;28;20024;-92
2021/12/12 06:27:52;;;;;;;30.70;14.40;;;5.30;64.60;;;;;;5113496;28;20032;-86
2021/12/12 06:30:21;;;;;;;28.08;14.88;;;5.30;64.30;;;;;;5113881;28;20028;-85
2021/12/12 06:32:49;;;;;;;30.88;14.90;;;5.30;64.50;;;;;;5124615;27;20032;-85
2021/12/12 06:35:17;;;;;;;29.35;14.43;;;5.50;64.00;;;;;;5109658;28;20081;-85
2021/12/12 06:37:43;;;;;;;28.17;14.38;;;5.60;63.50;;;;;;5109340;28;20540;-89
2021/12/12 06:40:12;;;;;;;30.63;15.52;;;5.20;64.20;;;;;;5109369;28;20027;-84
2021/12/12 06:42:38;;;;;;;28.48;13.95;;;5.50;64.90;;;;;;5111665;28;20016;-84
2021/12/12 06:45:11;;;;;;;30.70;14.98;;;5.50;63.10;;;;;;5110656;28;20051;-82
2021/12/12 06:47:38;;;;;;;26.15;14.82;;;5.70;64.00;;;;;;5109001;28;20043;-89
2021/12/12 06:50:06;;;;;;;28.58;14.27;;;5.90;62.70;;;;;;5094972;28;20039;-84
2021/12/12 06:52:32;;;;;;;27.77;14.18;;;5.90;63.20;;;;;;5110844;28;20031;-85
2021/12/12 06:54:59;;;;;;;29.90;14.65;;;6.00;62.70;;;;;;5109541;28;20471;-83
2021/12/12 06:57:25;;;;;;;28.52;14.32;;;6.10;62.30;;;;;;5110876;28;20115;-83
2021/12/12 06:59:52;;;;;;;26.65;13.57;;;6.30;62.10;;;;;;5094721;28;20120;-88
2021/12/12 07:02:21;;;;;;;36.55;18.58;;;5.90;62.00;;;;;;5097397;28;20063;-85
2021/12/12 07:04:47;;;;;;;32.03;16.75;;;6.00;62.30;;;;;;5096241;28;20045;-90
2021/12/12 07:07:16;;;;;;;27.60;15.82;;;5.90;62.20;;;;;;5096871;28;20036;-84
2021/12/12 07:09:45;;;;;;;27.90;14.18;;;5.90;62.60;;;;;;5104317;28;20490;-86
2021/12/12 07:12:15;;;;;;;27.10;13.88;;;6.40;62.10;;;;;;5116451;28;20031;-86
2021/12/12 07:14:41;;;;;;;29.92;14.25;;;6.60;60.60;;;;;;4747861;28;10000346;-85
2021/12/12 07:17:08;;;;;;;28.52;14.10;;;6.50;60.60;;;;;;5093936;28;20081;-81
2021/12/12 07:19:39;;;;;;;26.58;13.73;;;6.40;61.30;;;;;;5094709;28;20379;-84
2021/12/12 07:22:05;;;;;;;25.60;13.65;;;6.60;60.90;;;;;;5093980;28;20152;-87
2021/12/12 07:24:35;;;;;;;28.85;14.10;;;6.30;61.10;;;;;;5093090;28;20027;-88
2021/12/12 07:27:01;;;;;;;26.05;13.50;;;6.30;61.30;;;;;;5092877;28;20051;-82
2021/12/12 07:29:28;;;;;;;28.42;14.27;;;6.50;61.10;;;;;;5092801;28;20084;-83
2021/12/12 07:31:56;;;;;;;23.40;12.93;;;6.30;61.00;;;;;;5080700;28;20031;-85
2021/12/12 07:34:22;;;;;;;26.45;12.70;;;6.60;61.00;;;;;;5094532;28;20032;-83
2021/12/12 07:37:01;;;;;;;26.05;13.65;;;6.50;60.80;;;;;;5094475;28;20024;-82
2021/12/12 07:39:29;;;;;;;22.35;11.65;;;6.40;61.00;;;;;;5093719;28;20028;-86
2021/12/12 07:42:03;;;;;;;23.50;12.13;;;6.30;60.30;;;;;;5094412;28;20027;-89
2021/12/12 07:44:32;;;;;;;26.45;13.52;;;6.40;61.00;;;;;;5095085;28;20027;-83
2021/12/12 07:46:58;;;;;;;24.77;12.60;;;6.50;60.40;;;;;;5094181;28;20039;-87
2021/12/12 07:49:29;;;;;;;23.63;13.02;;;6.50;60.20;;;;;;5093181;28;20032;-83
2021/12/12 07:51:55;;;;;;;25.95;13.77;;;6.20;61.30;;;;;;5094660;28;20027;-89
2021/12/12 07:54:21;;;;;;;25.38;13.18;;;6.60;61.30;;;;;;5094286;28;20111;-86
2021/12/12 07:56:48;;;;;;;25.10;12.35;;;7.00;59.30;;;;;;5094788;28;20035;-85
2021/12/12 07:59:16;;;;;;;23.27;12.55;;;6.90;59.10;;;;;;5103332;28;20027;-83
2021/12/12 08:01:45;;;;;;;24.90;13.13;;;6.80;59.70;;;;;;5094312;28;20368;-84
2021/12/12 08:04:13;;;;;;;28.38;13.90;;;6.80;59.30;;;;;;5107475;28;20052;-86
2021/12/12 08:06:40;;;;;;;27.00;13.68;;;6.80;59.70;;;;;;5105996;28;20170;-86
2021/12/12 08:09:08;;;;;;;23.92;13.68;;;6.80;59.70;;;;;;5094494;28;20106;-84
2021/12/12 08:11:38;;;;;;;27.05;12.98;;;6.90;60.00;;;;;;5093133;28;20467;-91
2021/12/12 08:14:07;;;;;;;24.23;12.07;;;7.00;59.40;;;;;;5094470;28;20032;-84
2021/12/12 08:16:33;;;;;;;22.45;12.48;;;6.90;59.40;;;;;;5094885;28;20032;-85
2021/12/12 08:19:00;;;;;;;22.70;11.90;;;7.20;58.80;;;;;;5094074;28;20028;-91
2021/12/12 08:21:27;;;;;;;21.30;11.57;;;7.20;58.90;;;;;;5094906;28;20020;-85
2021/12/12 08:23:55;;;;;;;23.75;12.38;;;7.40;58.40;;;;;;5101752;28;20427;-85
2021/12/12 08:26:22;;;;;;;22.15;10.63;;;7.00;59.50;;;;;;5094238;28;20043;-86
2021/12/12 08:28:48;;;;;;;23.85;11.20;;;6.90;59.70;;;;;;5093600;28;20073;-85
2021/12/12 08:31:16;;;;;;;25.90;13.35;;;6.90;59.70;;;;;;5094282;28;20066;-84
2021/12/12 08:33:42;;;;;;;39.72;19.90;;;6.90;59.80;;;;;;5095190;28;20157;-84
2021/12/12 08:36:56;;;;;;;24.85;12.18;;;7.30;58.30;;;;;;5147135;27;20381;-83
2021/12/12 08:39:22;;;;;;;23.15;11.98;;;7.70;58.00;;;;;;5113151;28;20032;-84
2021/12/12 08:41:50;;;;;;;22.55;11.88;;;8.50;56.80;;;;;;5111033;28;20024;-86
2021/12/12 08:44:17;;;;;;;22.05;11.88;;;9.90;54.40;;;;;;5111690;28;20497;-88
2021/12/12 08:46:48;;;;;;;20.33;10.48;;;11.30;52.30;;;;;;5111981;28;20021;-89
2021/12/12 08:49:16;;;;;;;20.48;11.00;;;12.10;49.70;;;;;;5110655;28;20027;-88
2021/12/12 08:51:50;;;;;;;18.52;10.45;;;12.90;48.40;;;;;;5110805;28;20027;-90
2021/12/12 08:54:25;;;;;;;20.58;11.32;;;13.50;47.10;;;;;;5110386;28;20071;-86
2021/12/12 08:57:20;;;;;;;19.48;10.88;;;13.30;47.10;;;;;;5110576;28;20035;-88
2021/12/12 08:59:48;;;;;;;18.48;10.45;;;13.40;47.40;;;;;;5110499;28;20413;-88
2021/12/12 09:02:18;;;;;;;20.27;10.55;;;13.10;47.70;;;;;;5110427;28;20126;-88
2021/12/12 09:04:50;;;;;;;21.00;11.27;;;13.00;47.70;;;;;;5109909;28;20044;-88
2021/12/12 09:07:28;;;;;;;19.52;11.43;;;13.60;47.40;;;;;;5110322;28;20028;-88
2021/12/12 09:10:17;;;;;;;20.98;11.68;;;13.50;47.00;;;;;;5109934;28;20051;-91
2021/12/12 09:12:55;;;;;;;19.55;11.05;;;14.30;46.50;;;;;;5105245;28;20028;-89
2021/12/12 09:15:34;;;;;;;335.15;221.48;;;14.40;45.60;;;;;;5110688;28;20032;-88
2021/12/12 09:18:06;;;;;;;34.05;21.67;;;14.60;45.60;;;;;;5110347;28;20101;-87
2021/12/12 09:20:46;;;;;;;29.95;21.70;;;14.40;46.20;;;;;;5109782;28;20024;-90
2021/12/12 09:23:20;;;;;;;29.77;22.27;;;14.30;45.80;;;;;;5109834;28;20031;-88
2021/12/12 09:25:55;;;;;;;32.13;25.33;;;13.90;46.20;;;;;;5110695;28;20528;-90
2021/12/12 09:28:29;;;;;;;22.15;16.90;;;14.50;46.50;;;;;;5110174;28;20081;-90
2021/12/12 09:30:58;;;;;;;20.10;13.15;;;14.80;45.30;;;;;;5110227;28;20027;-87
2021/12/12 09:33:49;;;;;;;22.70;14.95;;;15.00;45.50;;;;;;5110001;28;20035;-87
2021/12/12 09:36:28;;;;;;;23.45;17.27;;;15.70;44.60;;;;;;5108277;28;20044;-90
2021/12/12 09:39:01;;;;;;;18.58;11.23;;;15.30;45.00;;;;;;5110688;28;20020;-88
2021/12/12 09:41:51;;;;;;;27.33;21.58;;;15.60;44.20;;;;;;5109500;28;20020;-90
2021/12/12 09:44:51;;;;;;;17.42;10.70;;;15.40;44.70;;;;;;5109611;28;20073;-91
2021/12/12 09:47:59;;;;;;;22.92;17.27;;;15.60;44.10;;;;;;5101407;28;20048;-92
2021/12/12 09:53:55;;;;;;;28.83;23.90;;;15.30;43.90;;;;;;5097325;28;20426;-91
2021/12/12 09:56:38;;;;;;;20.48;13.10;;;15.30;44.50;;;;;;5095391;28;20556;-90
2021/12/12 09:59:23;;;;;;;125.70;87.32;;;15.00;44.60;;;;;;5096170;28;20032;-92
2021/12/12 10:02:33;;;;;;;108.50;96.78;;;15.40;44.20;;;;;;5095713;28;20141;-91
2021/12/12 10:05:11;;;;;;;35.05;31.42;;;15.20;44.10;;;;;;5095298;28;20051;-89
2021/12/12 10:07:52;;;;;;;17.77;11.48;;;15.50;45.10;;;;;;5090166;28;20028;-92
2021/12/12 10:10:53;;;;;;;20.88;15.43;;;15.90;44.00;;;;;;5095906;28;20521;-89
2021/12/12 10:13:30;;;;;;;18.90;12.82;;;16.40;43.20;;;;;;5077929;28;20036;-89
2021/12/12 10:16:01;;;;;;;22.52;17.55;;;16.30;43.70;;;;;;5077518;28;20135;-91
2021/12/12 10:18:38;;;;;;;14.15;9.23;;;16.80;43.40;;;;;;5057591;28;20506;-92
2021/12/12 10:21:12;;;;;;;20.17;13.48;;;15.90;43.50;;;;;;5057940;28;20131;-90
2021/12/12 10:24:13;;;;;;;17.42;11.90;;;15.80;44.10;;;;;;5074637;28;20025;-90
2021/12/12 10:26:48;;;;;;;18.55;11.27;;;16.70;43.80;;;;;;5077633;28;20470;-90
2021/12/12 10:29:21;;;;;;;15.23;10.55;;;16.90;42.50;;;;;;5077473;28;20149;-89
2021/12/12 10:31:54;;;;;;;13.73;8.73;;;15.90;43.40;;;;;;5077514;28;20032;-87
2021/12/12 10:34:28;;;;;;;15.40;10.20;;;15.50;44.60;;;;;;5077241;28;20573;-86
2021/12/12 10:37:19;;;;;;;22.90;14.68;;;15.90;43.70;;;;;;5077273;28;20044;-87
2021/12/12 10:39:54;;;;;;;22.60;13.55;;;15.70;44.30;;;;;;5085039;28;20380;-89
2021/12/12 10:42:28;;;;;;;29.20;20.38;;;15.90;43.60;;;;;;5066027;28;20028;-87
2021/12/12 10:45:10;;;;;;;25.27;16.17;;;15.10;44.50;;;;;;5094808;28;20119;-86
2021/12/12 10:47:48;;;;;;;17.13;10.93;;;14.80;45.60;;;;;;5094686;28;20024;-86
2021/12/12 10:50:16;;;;;;;20.02;10.70;;;14.30;45.50;;;;;;5094604;28;20024;-90
2021/12/12 10:52:47;;;;;;;16.13;8.10;;;13.90;46.10;;;;;;5094518;28;20047;-86
2021/12/12 10:55:21;;;;;;;10.02;6.70;;;13.30;47.70;;;;;;5094421;28;20036;-85
2021/12/12 10:57:59;;;;;;;10.30;6.60;;;12.80;48.10;;;;;;5089194;28;20024;-86
2021/12/12 11:00:29;;;;;;;12.02;8.38;;;12.40;49.10;;;;;;5094293;28;20031;-85
2021/12/12 11:03:20;;;;;;;17.10;11.82;;;12.30;49.30;;;;;;5093743;28;20028;-87
2021/12/12 11:05:58;;;;;;;15.27;10.82;;;12.30;49.60;;;;;;5094016;28;20027;-86
2021/12/12 11:08:36;;;;;;;13.98;9.57;;;12.40;48.90;;;;;;5090379;28;20035;-85
2021/12/12 11:11:16;;;;;;;15.02;8.02;;;12.60;49.50;;;;;;5073858;28;20020;-88
2021/12/12 11:14:39;;;;;;;8.63;6.05;;;12.50;48.70;;;;;;5077693;27;1414500;-83
2021/12/12 11:17:14;;;;;;;17.95;14.52;;;11.70;50.10;;;;;;5083710;28;20040;-85
2021/12/12 11:19:51;;;;;;;19.42;14.23;;;11.40;51.10;;;;;;5093661;28;20027;-83
2021/12/12 11:22:24;;;;;;;20.10;14.30;;;10.90;51.70;;;;;;5109535;28;20016;-85
2021/12/12 11:25:00;;;;;;;31.52;24.15;;;10.80;52.30;;;;;;5105797;28;20028;-84
2021/12/12 11:28:00;;;;;;;15.90;11.30;;;10.60;52.20;;;;;;4751157;28;9999680;-85
2021/12/12 11:30:41;;;;;;;9.15;5.43;;;10.50;52.80;;;;;;5089649;28;20400;-85
2021/12/12 11:33:10;;;;;;;14.23;7.95;;;10.60;52.50;;;;;;5090453;28;20039;-84
2021/12/12 11:35:39;;;;;;;12.75;8.40;;;10.50;53.00;;;;;;5087026;28;20024;-83
2021/12/12 11:38:43;;;;;;;9.13;5.57;;;10.40;53.60;;;;;;5092240;28;20023;-83
2021/12/12 11:41:16;;;;;;;11.55;6.00;;;10.40;52.90;;;;;;5092479;28;20016;-83
2021/12/12 11:44:03;;;;;;;9.85;6.00;;;10.10;53.50;;;;;;5110462;28;20051;-86
2021/12/12 11:46:35;;;;;;;11.30;5.75;;;9.60;54.10;;;;;;5091715;28;20023;-87
2021/12/12 11:49:11;;;;;;;12.25;5.80;;;9.30;55.10;;;;;;5092763;28;20070;-88
2021/12/12 11:52:01;;;;;;;12.50;7.35;;;9.20;55.10;;;;;;5091548;28;20019;-84
2021/12/12 11:54:45;;;;;;;12.05;6.40;;;9.20;55.70;;;;;;5085594;28;20050;-87
2021/12/12 11:57:13;;;;;;;10.57;6.05;;;9.30;55.30;;;;;;5071838;28;20637;-89
2021/12/12 11:59:59;;;;;;;9.60;5.75;;;9.60;54.70;;;;;;5071930;28;20464;-87
2021/12/12 12:03:08;;;;;;;10.25;5.82;;;10.00;54.20;;;;;;5076299;28;20477;-85
2021/12/12 12:06:17;;;;;;;11.23;7.45;;;10.00;54.50;;;;;;5071446;28;20040;-86
2021/12/12 12:08:46;;;;;;;14.23;9.43;;;9.70;54.80;;;;;;5064280;28;20060;-85
2021/12/12 12:11:27;;;;;;;19.05;10.75;;;9.70;54.70;;;;;;5065880;28;20093;-87
2021/12/12 12:14:12;;;;;;;11.93;7.10;;;9.50;54.70;;;;;;5071859;28;20240;-86
2021/12/12 12:17:00;;;;;;;17.60;11.07;;;9.40;55.30;;;;;;5060533;28;20035;-90
2021/12/12 12:19:46;;;;;;;14.23;9.80;;;9.40;55.60;;;;;;5070871;28;20039;-86
2021/12/12 12:22:38;;;;;;;14.00;8.55;;;10.00;54.70;;;;;;5067210;28;20070;-85
2021/12/12 12:28:34;;;;;;;15.88;10.55;;;9.80;53.90;;;;;;5062304;28;20407;-85
2021/12/12 12:31:19;;;;;;;13.57;9.02;;;9.60;55.00;;;;;;5057739;28;20029;-85
2021/12/12 12:34:38;;;;;;;13.93;9.43;;;9.40;55.30;;;;;;5075596;28;20409;-86
2021/12/12 12:37:28;;;;;;;37.40;32.30;;;9.40;55.00;;;;;;5057732;28;20111;-84
2021/12/12 12:40:00;;;;;;;31.52;26.08;;;9.30;55.80;;;;;;5056885;28;20073;-86
2021/12/12 12:42:50;;;;;;;14.35;10.13;;;9.10;56.00;;;;;;5056626;28;20107;-83
2021/12/12 12:45:44;;;;;;;13.30;9.00;;;9.10;55.80;;;;;;5057108;28;20027;-83
2021/12/12 12:48:13;;;;;;;27.42;17.15;;;9.10;55.50;;;;;;5057773;28;20068;-84
2021/12/12 12:50:42;;;;;;;20.33;14.45;;;9.00;56.20;;;;;;5075037;28;20021;-84
2021/12/12 12:53:27;;;;;;;49.38;31.50;;;9.40;55.60;;;;;;5057235;28;20035;-84
2021/12/12 12:56:23;;;;;;;32.42;17.35;;;9.40;54.60;;;;;;5055057;28;20534;-83
2021/12/12 12:58:55;;;;;;;13.63;8.15;;;9.30;55.00;;;;;;5054837;28;20380;-89
2021/12/12 13:01:43;;;;;;;14.88;8.07;;;9.40;55.10;;;;;;5037154;28;20032;-83
2021/12/12 13:04:35;;;;;;;23.13;15.10;;;9.20;54.90;;;;;;5037289;28;20104;-86
2021/12/12 13:07:14;;;;;;;20.05;14.40;;;9.20;55.30;;;;;;5045822;28;20025;-83
2021/12/12 13:10:01;;;;;;;18.23;11.82;;;9.10;55.90;;;;;;5054514;28;20036;-83
2021/12/12 13:12:42;;;;;;;14.43;8.98;;;9.60;54.90;;;;;;5053087;28;20074;-83
2021/12/12 13:15:37;;;;;;;19.20;12.90;;;9.60;54.20;;;;;;5074784;28;20029;-85
2021/12/12 13:18:34;;;;;;;26.52;18.98;;;9.20;54.70;;;;;;5056651;28;20058;-85
2021/12/12 13:21:18;;;;;;;40.22;30.92;;;9.00;55.20;;;;;;5056670;28;20032;-83
2021/12/12 13:23:53;;;;;;;13.10;8.35;;;9.30;55.80;;;;;;5056526;28;20055;-83
2021/12/12 13:26:41;;;;;;;23.92;14.77;;;9.50;54.70;;;;;;5056233;28;20021;-84
2021/12/12 13:29:39;;;;;;;19.50;12.13;;;9.70;55.00;;;;;;5036306;28;20127;-84
2021/12/12 13:32:17;;;;;;;70.30;47.72;;;9.60;54.40;;;;;;5046465;28;20020;-83
2021/12/12 13:35:18;;;;;;;13.57;8.90;;;9.60;54.50;;;;;;5074249;28;20039;-85
2021/12/12 13:38:06;;;;;;;55.95;37.85;;;9.20;55.10;;;;;;4992171;28;20030;-83
2021/12/12 13:40:49;;;;;;;17.45;10.38;;;9.40;55.10;;;;;;4992581;28;20057;-83